Time;durP1;ratioP1;P1;durP2;ratioP2;P2;SDS_P1;SDS_P2;PMS_P1;PMS_P2;Temp;Humidity;BMP_temperature;BMP_pressure;BME280_temperature;BME280_humidity;BME280_pressure;Samples;Min_cycle;Max_cycle;Signal;HPM_P1;HPM_P2
2022/03/17 00:02:07;;;;;;;20.90;16.58;;;;;;;10.70;nan;101683.22;5074354;28;20040;-50
2022/03/17 00:04:33;;;;;;;24.92;17.85;;;;;;;10.27;nan;101600.72;5055198;28;20052;-53
2022/03/17 00:06:58;;;;;;;22.08;16.83;;;;;;;10.64;nan;101660.50;5054681;28;20495;-55
2022/03/17 00:09:24;;;;;;;19.85;17.65;;;;;;;10.70;nan;101684.09;5036935;28;20048;-55
2022/03/17 00:11:50;;;;;;;22.88;17.20;;;;;;;10.64;nan;101665.78;5036863;28;20064;-57
2022/03/17 00:14:16;;;;;;;19.77;17.45;;;;;;;10.73;nan;101691.06;5054486;28;20090;-56
2022/03/17 00:16:41;;;;;;;21.40;17.48;;;;;;;10.24;nan;101633.22;5054430;28;20416;-52
2022/03/17 00:19:08;;;;;;;23.13;18.67;;;;;;;10.67;nan;101684.16;5054178;28;20028;-50
2022/03/17 00:21:37;;;;;;;24.55;18.95;;;;;;;10.63;nan;101694.75;5054176;28;20094;-50
2022/03/17 00:24:06;;;;;;;23.55;18.50;;;;;;;10.37;nan;101642.59;5052980;28;20033;-49
2022/03/17 00:26:32;;;;;;;22.02;19.10;;;;;;;10.70;nan;101680.56;5054361;28;20502;-52
2022/03/17 00:28:58;;;;;;;23.50;19.88;;;;;;;10.30;nan;101619.06;5036074;28;20057;-50
2022/03/17 00:31:23;;;;;;;25.55;19.95;;;;;;;10.71;nan;101684.97;5054334;28;20033;-56
2022/03/17 00:33:48;;;;;;;23.92;18.65;;;;;;;10.71;nan;101682.31;5036086;28;20037;-53
2022/03/17 00:36:13;;;;;;;26.33;19.23;;;;;;;10.57;nan;101661.50;5040102;28;20103;-52
2022/03/17 00:38:39;;;;;;;25.98;20.40;;;;;;;10.67;nan;101686.78;5074130;28;20079;-57
2022/03/17 00:41:04;;;;;;;27.45;20.67;;;;;;;10.69;nan;101682.34;5056083;28;20474;-49
2022/03/17 00:43:30;;;;;;;22.08;19.50;;;;;;;10.38;nan;101631.19;5073841;28;20036;-55
2022/03/17 00:45:55;;;;;;;24.27;20.33;;;;;;;10.58;nan;101673.78;5055740;28;20032;-50
2022/03/17 00:48:21;;;;;;;25.20;20.30;;;;;;;10.31;nan;101611.13;5055834;28;20480;-51
2022/03/17 00:50:46;;;;;;;26.20;20.73;;;;;;;10.72;nan;101684.91;5073961;28;20495;-53
2022/03/17 00:53:12;;;;;;;27.58;22.02;;;;;;;10.74;nan;101691.00;5073700;28;20051;-49
2022/03/17 00:55:38;;;;;;;28.92;23.02;;;;;;;10.77;nan;101689.22;5074131;28;20056;-56
2022/03/17 00:58:04;;;;;;;24.38;20.42;;;;;;;10.38;nan;101638.22;5055680;28;20068;-53
2022/03/17 01:00:29;;;;;;;28.20;22.30;;;;;;;10.74;nan;101698.91;5073662;28;20170;-55
2022/03/17 01:02:56;;;;;;;29.52;23.90;;;;;;;10.37;nan;101647.88;5073238;28;20527;-56
2022/03/17 01:05:22;;;;;;;29.80;25.35;;;;;;;10.54;nan;101671.22;5055513;28;20594;-52
2022/03/17 01:07:47;;;;;;;33.90;25.55;;;;;;;9.84;nan;101554.09;5073265;28;20036;-58
2022/03/17 01:10:15;;;;;;;33.30;26.52;;;;;;;10.32;nan;101647.09;5073715;28;20040;-53
2022/03/17 01:12:43;;;;;;;35.22;27.45;;;;;;;10.12;nan;101615.84;5055320;28;20040;-54
2022/03/17 01:15:09;;;;;;;36.70;27.55;;;;;;;10.12;nan;101630.75;5055624;28;20044;-51
2022/03/17 01:17:34;;;;;;;39.03;29.02;;;;;;;10.31;nan;101673.41;5073050;28;20043;-55
2022/03/17 01:19:59;;;;;;;38.03;29.88;;;;;;;9.85;nan;101599.69;5073268;28;20040;-54
2022/03/17 01:22:25;;;;;;;42.25;30.35;;;;;;;10.42;nan;101697.81;5055359;28;20086;-52
2022/03/17 01:24:54;;;;;;;43.20;32.67;;;;;;;10.36;nan;101682.13;5071730;28;20476;-54
2022/03/17 01:27:20;;;;;;;42.15;32.63;;;;;;;10.28;nan;101682.22;5055089;28;20373;-50
2022/03/17 01:29:53;;;;;;;42.05;33.08;;;;;;;10.23;nan;101681.47;5072627;28;20052;-55
2022/03/17 01:32:20;;;;;;;52.38;36.28;;;;;;;10.10;nan;101659.72;5072934;28;20060;-50
2022/03/17 01:34:45;;;;;;;49.08;35.92;;;;;;;9.98;nan;101648.56;5038214;28;20549;-55
2022/03/17 01:37:11;;;;;;;48.40;37.83;;;;;;;10.30;nan;101711.16;5054791;28;20033;-50
2022/03/17 01:39:36;;;;;;;54.55;38.13;;;;;;;10.24;nan;101696.34;5072835;28;20028;-55
2022/03/17 01:42:04;;;;;;;51.28;39.13;;;;;;;10.37;nan;101718.91;5072602;28;20036;-51
2022/03/17 01:44:29;;;;;;;48.78;39.35;;;;;;;10.06;nan;101662.44;5072632;28;20024;-52
2022/03/17 01:49:39;;;;;;;40.03;30.85;;;;;;;10.20;nan;101712.22;5072567;28;20513;-51
2022/03/17 01:52:05;;;;;;;43.33;31.33;;;;;;;10.25;nan;101742.81;5054717;28;20033;-51
2022/03/17 01:54:31;;;;;;;31.05;23.80;;;;;;;10.14;nan;101748.25;5054726;28;20039;-49
2022/03/17 01:56:58;;;;;;;23.63;19.15;;;;;;;9.80;nan;101714.59;5072550;28;20042;-56
2022/03/17 01:59:23;;;;;;;20.83;17.17;;;;;;;9.56;nan;101721.06;5054789;28;20028;-55
2022/03/17 02:01:49;;;;;;;19.38;13.75;;;;;;;9.67;nan;101784.88;5072516;28;20047;-51
2022/03/17 02:04:14;;;;;;;14.52;11.90;;;;;;;8.98;nan;101732.34;5037949;28;20032;-55
2022/03/17 02:06:40;;;;;;;14.20;9.50;;;;;;;8.94;nan;101772.63;5072460;28;20051;-55
2022/03/17 02:09:05;;;;;;;11.40;7.63;;;;;;;8.85;nan;101819.13;5072274;28;20396;-51
2022/03/17 02:14:20;;;;;;;17.80;9.23;;;;;;;8.38;nan;101833.53;5072643;28;20044;-52
2022/03/17 02:16:45;;;;;;;14.15;8.90;;;;;;;8.23;nan;101817.88;5072278;28;20368;-57
2022/03/17 02:19:10;;;;;;;16.65;9.70;;;;;;;7.74;nan;101764.88;5072311;28;20094;-52
2022/03/17 02:21:37;;;;;;;20.02;10.75;;;;;;;7.42;nan;101716.16;5072055;28;20086;-53
2022/03/17 02:26:48;;;;;;;16.00;9.90;;;;;;;7.88;nan;101852.16;5072306;28;20451;-53
2022/03/17 02:29:13;;;;;;;15.43;10.15;;;;;;;7.78;nan;101828.66;5072023;28;20223;-50
2022/03/17 02:31:38;;;;;;;18.85;10.02;;;;;;;7.41;nan;101779.94;5072127;28;20032;-49
2022/03/17 02:34:04;;;;;;;21.33;11.00;;;;;;;7.43;nan;101806.97;5054112;28;20037;-49
2022/03/17 02:36:29;;;;;;;21.00;10.95;;;;;;;7.60;nan;101850.56;5071940;28;20033;-49
2022/03/17 02:38:55;;;;;;;17.17;11.18;;;;;;;7.53;nan;101832.28;5071927;28;20040;-52
2022/03/17 02:41:23;;;;;;;22.38;11.57;;;;;;;7.71;nan;101876.72;5054280;28;20376;-50
2022/03/17 02:43:54;;;;;;;21.23;14.15;;;;;;;7.56;nan;101861.94;5072002;28;20082;-49
2022/03/17 02:46:21;;;;;;;27.85;16.48;;;;;;;7.34;nan;101826.22;5071236;28;20024;-55
2022/03/17 02:48:47;;;;;;;29.08;17.75;;;;;;;7.66;nan;101887.22;5074844;28;20032;-53
2022/03/17 02:51:12;;;;;;;27.42;18.90;;;;;;;7.65;nan;101869.75;5075835;28;20480;-56
2022/03/17 02:53:37;;;;;;;29.75;18.27;;;;;;;7.67;nan;101896.84;5057827;28;20532;-51
2022/03/17 02:56:03;;;;;;;30.63;16.88;;;;;;;7.61;nan;101880.28;5075666;28;20036;-51
2022/03/17 02:58:31;;;;;;;34.65;18.42;;;;;;;7.57;nan;101882.03;5075813;28;20040;-51
2022/03/17 03:00:57;;;;;;;29.40;16.83;;;;;;;7.56;nan;101901.22;5075937;28;20502;-50
2022/03/17 03:03:23;;;;;;;30.67;16.88;;;;;;;7.52;nan;101894.28;5057771;28;20507;-53
2022/03/17 03:05:48;;;;;;;34.63;15.80;;;;;;;7.61;nan;101933.56;5075668;28;20071;-56
2022/03/17 03:08:14;;;;;;;31.65;16.67;;;;;;;7.58;nan;101941.41;5075677;28;20028;-51
2022/03/17 03:10:40;;;;;;;25.08;16.02;;;;;;;7.26;nan;101888.22;5075574;28;20611;-50
2022/03/17 03:13:06;;;;;;;25.83;16.80;;;;;;;7.19;nan;101878.63;5075732;28;20039;-51
2022/03/17 03:15:31;;;;;;;25.83;15.75;;;;;;;7.12;nan;101880.38;5075647;28;20086;-52
2022/03/17 03:17:58;;;;;;;24.58;14.98;;;;;;;7.57;nan;101962.38;5057107;28;20067;-50
2022/03/17 03:20:23;;;;;;;31.65;16.20;;;;;;;7.50;nan;101952.78;5057344;28;20059;-51
2022/03/17 03:22:49;;;;;;;30.58;13.85;;;;;;;7.49;nan;101974.63;5075097;28;20044;-53
2022/03/17 03:25:14;;;;;;;30.15;10.23;;;;;;;7.45;nan;101975.47;5075409;28;20033;-51
2022/03/17 03:27:40;;;;;;;29.55;10.18;;;;;;;7.46;nan;101993.84;5075260;28;20037;-51
2022/03/17 03:30:11;;;;;;;26.73;7.65;;;;;;;7.47;nan;101992.09;5075405;28;20080;-51
2022/03/17 03:32:37;;;;;;;;;;;;;;;7.49;nan;102000.81;5075750;28;20028;-53
2022/03/17 03:37:22;;;;;;;26.25;6.65;;;;;;;7.40;nan;102022.66;5075053;28;19916;-52
2022/03/17 03:37:49;;;;;;;21.95;5.50;;;;;;;7.34;nan;102030.50;5074798;28;20047;-49
2022/03/17 03:40:14;;;;;;;17.90;5.07;;;;;;;6.86;nan;101951.97;5057439;28;20399;-49
2022/03/17 03:42:39;;;;;;;21.58;5.88;;;;;;;6.80;nan;101948.47;5075105;28;20044;-50
2022/03/17 03:45:05;;;;;;;19.60;4.20;;;;;;;7.29;nan;102038.38;5075002;28;20039;-51
2022/03/17 03:47:30;;;;;;;22.83;4.55;;;;;;;6.92;nan;101979.00;5074843;28;20036;-53
2022/03/17 03:49:55;;;;;;;17.05;4.47;;;;;;;7.30;nan;102065.44;5075277;28;20470;-52
2022/03/17 03:52:21;;;;;;;23.75;4.22;;;;;;;6.99;nan;102030.50;5075008;28;20158;-54
2022/03/17 03:54:46;;;;;;;18.83;4.25;;;;;;;7.14;nan;102066.31;5074383;28;20082;-52
2022/03/17 03:57:11;;;;;;;17.70;4.00;;;;;;;6.73;nan;102003.41;5074361;28;20123;-52
2022/03/17 03:59:38;;;;;;;19.30;4.65;;;;;;;7.10;nan;102083.75;5074834;28;20064;-50
2022/03/17 04:02:09;;;;;;;14.50;3.13;;;;;;;7.09;nan;102086.38;5056871;28;20388;-53
2022/03/17 04:04:36;;;;;;;13.38;3.75;;;;;;;6.82;nan;102053.16;5074736;28;20032;-50
2022/03/17 04:07:04;;;;;;;11.15;3.28;;;;;;;7.08;nan;102095.09;5074586;28;20024;-52
2022/03/17 04:09:34;;;;;;;16.05;3.83;;;;;;;7.11;nan;102101.22;5074567;28;20048;-55
2022/03/17 04:12:00;;;;;;;17.85;3.30;;;;;;;7.19;nan;102132.63;5056915;28;20028;-52
2022/03/17 04:14:25;;;;;;;16.50;3.15;;;;;;;6.99;nan;102116.00;5074383;28;20040;-52
2022/03/17 04:16:51;;;;;;;15.40;3.33;;;;;;;6.87;nan;102084.56;5074157;28;20035;-53
2022/03/17 04:19:16;;;;;;;21.55;5.00;;;;;;;7.15;nan;102152.69;5074422;28;20024;-54
2022/03/17 04:21:46;;;;;;;13.23;3.25;;;;;;;6.74;nan;102089.75;5074298;28;20444;-49
2022/03/17 04:24:12;;;;;;;10.90;2.45;;;;;;;7.05;nan;102153.56;5056292;28;20032;-53
2022/03/17 04:26:37;;;;;;;16.73;2.88;;;;;;;7.10;nan;102172.75;5074322;28;20027;-49
2022/03/17 04:29:02;;;;;;;14.75;2.55;;;;;;;7.12;nan;102181.50;5052618;28;20065;-53
2022/03/17 04:31:29;;;;;;;13.82;2.33;;;;;;;7.09;nan;102188.50;5074348;28;20131;-49
2022/03/17 04:33:55;;;;;;;14.88;3.45;;;;;;;7.02;nan;102179.72;5074101;28;20029;-54
2022/03/17 04:36:21;;;;;;;19.83;2.67;;;;;;;6.87;nan;102163.09;5039685;28;20438;-53
2022/03/17 04:38:47;;;;;;;16.48;3.10;;;;;;;6.98;nan;102201.53;5074147;28;20071;-54
2022/03/17 04:41:12;;;;;;;12.90;2.33;;;;;;;6.54;nan;102129.78;5056147;28;20036;-50
2022/03/17 04:43:38;;;;;;;12.13;2.45;;;;;;;7.03;nan;102219.88;5039393;28;20044;-54
2022/03/17 04:46:04;;;;;;;16.10;2.25;;;;;;;6.98;nan;102227.69;5073701;28;20032;-53
2022/03/17 04:48:29;;;;;;;10.57;2.40;;;;;;;6.97;nan;102238.19;5056133;28;20480;-52
2022/03/17 04:50:55;;;;;;;14.20;2.97;;;;;;;6.94;nan;102230.31;5073804;28;20032;-51
2022/03/17 04:53:32;;;;;;;15.55;3.13;;;;;;;7.01;nan;102247.78;5073551;28;20041;-51
2022/03/17 04:56:08;;;;;;;17.83;3.13;;;;;;;6.94;nan;102233.81;5057453;28;20468;-53
2022/03/17 04:58:35;;;;;;;11.10;2.15;;;;;;;7.03;nan;102262.66;5073584;28;20047;-50
2022/03/17 05:01:01;;;;;;;16.88;2.72;;;;;;;6.60;nan;102197.84;5073648;28;20031;-54
2022/03/17 05:03:27;;;;;;;18.08;3.85;;;;;;;6.82;nan;102252.06;5055781;28;20179;-55
2022/03/17 05:05:53;;;;;;;15.35;2.78;;;;;;;6.98;nan;102289.66;5055557;28;20033;-54
2022/03/17 05:08:19;;;;;;;14.48;2.92;;;;;;;6.88;nan;102280.88;5073421;28;20056;-52
2022/03/17 05:10:47;;;;;;;11.45;2.70;;;;;;;6.93;nan;102313.19;5072733;28;20457;-55
2022/03/17 05:13:13;;;;;;;7.85;2.63;;;;;;;6.97;nan;102312.34;5055323;28;20442;-54
2022/03/17 05:15:39;;;;;;;15.15;2.90;;;;;;;6.57;nan;102247.53;5055625;28;20036;-53
2022/03/17 05:18:06;;;;;;;12.65;3.53;;;;;;;6.97;nan;102322.81;5055199;28;20078;-51
2022/03/17 05:20:32;;;;;;;16.45;3.05;;;;;;;6.78;nan;102307.84;5038789;28;20639;-52
2022/03/17 05:22:58;;;;;;;16.10;2.65;;;;;;;6.46;nan;102259.66;5072921;28;20503;-51
2022/03/17 05:25:23;;;;;;;18.77;2.63;;;;;;;6.77;nan;102308.75;5071881;28;20028;-50
2022/03/17 05:27:49;;;;;;;19.27;3.22;;;;;;;6.95;nan;102353.34;5073155;28;20097;-54
2022/03/17 05:30:16;;;;;;;14.77;2.65;;;;;;;6.86;nan;102355.88;5055080;28;20041;-53
2022/03/17 05:32:43;;;;;;;14.10;2.63;;;;;;;6.77;nan;102366.31;5072825;28;20471;-54
2022/03/17 05:35:08;;;;;;;20.92;2.92;;;;;;;6.57;nan;102326.91;5072982;28;20037;-52
2022/03/17 05:37:34;;;;;;;16.58;3.17;;;;;;;6.81;nan;102368.06;5054941;28;20399;-53
2022/03/17 05:40:02;;;;;;;18.65;3.03;;;;;;;6.62;nan;102346.16;5072713;28;20390;-52
2022/03/17 05:42:28;;;;;;;17.17;3.42;;;;;;;6.40;nan;102315.44;5072961;28;20032;-53
2022/03/17 05:44:54;;;;;;;19.00;3.13;;;;;;;6.76;nan;102395.97;5073088;28;20135;-52
2022/03/17 05:47:20;;;;;;;13.50;2.67;;;;;;;6.75;nan;102402.03;5038373;28;20029;-50
2022/03/17 05:49:47;;;;;;;13.02;2.95;;;;;;;6.70;nan;102386.31;5072527;28;20052;-54
2022/03/17 05:52:12;;;;;;;20.83;3.55;;;;;;;6.35;nan;102335.44;5072595;28;20097;-52
2022/03/17 05:54:37;;;;;;;18.35;4.22;;;;;;;6.71;nan;102400.28;5038190;28;20036;-52
2022/03/17 05:57:04;;;;;;;16.08;3.28;;;;;;;6.75;nan;102416.00;5072275;28;20473;-53
2022/03/17 05:59:29;;;;;;;16.63;3.25;;;;;;;6.77;nan;102422.13;5055036;28;20101;-54
2022/03/17 06:01:54;;;;;;;16.48;3.00;;;;;;;6.75;nan;102416.00;5072457;28;20480;-50
2022/03/17 06:04:20;;;;;;;21.05;3.30;;;;;;;6.82;nan;102432.66;5054695;28;20046;-51
2022/03/17 06:06:45;;;;;;;15.32;3.42;;;;;;;6.83;nan;102431.75;5054617;28;20495;-52
2022/03/17 06:09:10;;;;;;;12.52;3.05;;;;;;;6.73;nan;102436.06;5072222;28;20028;-51
2022/03/17 06:11:35;;;;;;;14.40;2.20;;;;;;;6.80;nan;102450.94;5071431;28;20144;-53
2022/03/17 06:14:01;;;;;;;9.52;2.80;;;;;;;6.82;nan;102450.97;5071355;28;20105;-53
2022/03/17 06:16:27;;;;;;;14.80;3.00;;;;;;;6.54;nan;102409.69;5072370;28;20072;-51
2022/03/17 06:18:52;;;;;;;17.67;3.20;;;;;;;6.62;nan;102429.88;5072215;28;20032;-53
2022/03/17 06:21:17;;;;;;;15.43;2.65;;;;;;;6.76;nan;102457.03;5071454;28;20032;-51
2022/03/17 06:23:43;;;;;;;9.90;2.80;;;;;;;6.88;nan;102476.31;5072078;28;20036;-49
2022/03/17 06:26:09;;;;;;;10.75;2.78;;;;;;;6.90;nan;102488.56;5072057;28;20037;-51
2022/03/17 06:28:34;;;;;;;11.57;2.60;;;;;;;6.83;nan;102478.88;5072122;28;20036;-51
2022/03/17 06:31:01;;;;;;;9.55;2.60;;;;;;;6.90;nan;102503.38;5072157;28;20091;-53
2022/03/17 06:33:26;;;;;;;16.48;2.10;;;;;;;6.85;nan;102519.06;5054408;28;20456;-54
2022/03/17 06:35:52;;;;;;;15.02;2.83;;;;;;;6.51;nan;102469.88;5071806;28;20060;-52
2022/03/17 06:38:17;;;;;;;13.75;2.63;;;;;;;6.46;nan;102468.94;5054078;28;20032;-50
2022/03/17 06:40:42;;;;;;;12.98;2.33;;;;;;;6.62;nan;102524.06;5054006;28;20028;-55
2022/03/17 06:43:08;;;;;;;14.15;2.67;;;;;;;6.35;nan;102467.94;5072128;28;20083;-49
2022/03/17 06:45:33;;;;;;;9.98;2.83;;;;;;;6.36;nan;102474.94;5054290;28;20043;-49
2022/03/17 06:47:59;;;;;;;9.90;2.13;;;;;;;6.76;nan;102558.22;5072016;28;20116;-52
2022/03/17 06:50:25;;;;;;;7.03;2.65;;;;;;;6.79;nan;102545.16;5071807;28;20487;-52
2022/03/17 06:52:50;;;;;;;14.43;3.22;;;;;;;6.75;nan;102549.47;5071743;28;20024;-49
2022/03/17 06:55:16;;;;;;;12.52;2.65;;;;;;;6.81;nan;102559.13;5070728;28;20468;-53
2022/03/17 06:57:42;;;;;;;12.98;2.75;;;;;;;6.88;nan;102574.06;5072182;28;20299;-51
2022/03/17 07:00:13;;;;;;;15.05;2.60;;;;;;;6.83;nan;102577.50;5072069;28;20036;-51
2022/03/17 07:02:38;;;;;;;11.40;2.42;;;;;;;6.86;nan;102585.38;5071946;28;20158;-52
2022/03/17 07:05:05;;;;;;;10.52;2.65;;;;;;;6.53;nan;102534.44;5071544;28;20111;-52
2022/03/17 07:07:30;;;;;;;10.88;2.20;;;;;;;6.86;nan;102595.84;5071735;28;20047;-48
2022/03/17 07:09:56;;;;;;;13.85;2.63;;;;;;;6.89;nan;102591.50;5071824;28;20029;-48
2022/03/17 07:12:21;;;;;;;11.55;2.50;;;;;;;6.57;nan;102530.97;5054071;28;20040;-50
2022/03/17 07:14:46;;;;;;;12.05;2.17;;;;;;;6.93;nan;102605.50;5071720;28;20495;-51
2022/03/17 07:17:12;;;;;;;9.10;2.65;;;;;;;6.55;nan;102543.16;5071605;28;20479;-51
2022/03/17 07:19:37;;;;;;;13.15;2.50;;;;;;;6.94;nan;102607.25;5053859;28;20036;-53
2022/03/17 07:22:03;;;;;;;11.68;2.15;;;;;;;6.84;nan;102606.28;5053697;28;20493;-50
2022/03/17 07:24:29;;;;;;;18.50;2.30;;;;;;;7.03;nan;102630.94;5071764;28;20036;-50
2022/03/17 07:26:54;;;;;;;7.75;2.50;;;;;;;7.05;nan;102643.16;5071858;28;20052;-54
2022/03/17 07:29:20;;;;;;;11.00;2.67;;;;;;;7.04;nan;102637.91;5053453;28;20054;-52
2022/03/17 07:31:45;;;;;;;8.80;2.05;;;;;;;6.98;nan;102635.22;5071257;28;20045;-53
2022/03/17 07:34:11;;;;;;;14.60;2.05;;;;;;;7.01;nan;102637.88;5056831;28;20045;-47
2022/03/17 07:36:36;;;;;;;14.45;2.42;;;;;;;6.89;nan;102638.63;5075113;28;20036;-48
2022/03/17 07:39:03;;;;;;;9.80;2.35;;;;;;;6.46;nan;102574.44;5075036;28;20044;-50
2022/03/17 07:41:29;;;;;;;9.85;1.85;;;;;;;6.51;nan;102600.69;5057541;28;20434;-54
2022/03/17 07:43:54;;;;;;;5.38;2.05;;;;;;;6.92;nan;102679.69;5057084;28;20089;-50
2022/03/17 07:46:20;;;;;;;9.45;2.22;;;;;;;6.94;nan;102694.53;5074712;28;20542;-51
2022/03/17 07:48:45;;;;;;;6.18;1.92;;;;;;;6.86;nan;102680.47;5074835;28;20503;-49
2022/03/17 07:51:11;;;;;;;10.90;1.88;;;;;;;6.95;nan;102685.81;5056996;28;20024;-52
2022/03/17 07:53:37;;;;;;;6.90;1.90;;;;;;;6.94;nan;102686.69;5074797;28;20278;-50
2022/03/17 07:56:03;;;;;;;12.07;2.50;;;;;;;7.00;nan;102697.25;5074847;28;20044;-54
2022/03/17 07:58:29;;;;;;;8.85;1.77;;;;;;;6.94;nan;102686.69;5074775;28;20119;-56
2022/03/17 08:00:56;;;;;;;9.82;2.17;;;;;;;7.07;nan;102704.28;5075011;28;20163;-55
2022/03/17 08:03:22;;;;;;;7.32;2.00;;;;;;;7.08;nan;102703.44;5074563;28;20505;-55
2022/03/17 08:05:48;;;;;;;9.75;2.58;;;;;;;7.20;nan;102718.41;5056822;28;20111;-58
2022/03/17 08:08:14;;;;;;;10.68;1.98;;;;;;;7.00;nan;102673.66;5056984;28;20387;-55
2022/03/17 08:10:40;;;;;;;7.20;1.42;;;;;;;7.47;nan;102731.81;5074264;28;20060;-56
2022/03/17 08:13:06;;;;;;;8.25;1.88;;;;;;;7.69;nan;102740.75;5074258;28;20417;-56
2022/03/17 08:15:31;;;;;;;6.55;1.50;;;;;;;7.44;nan;102699.44;5056624;28;20475;-57
2022/03/17 08:17:57;;;;;;;10.32;1.98;;;;;;;7.80;nan;102775.81;5055070;28;20107;-55
2022/03/17 08:20:22;;;;;;;9.88;1.70;;;;;;;7.55;nan;102711.78;5073251;28;20036;-56
2022/03/17 08:22:49;;;;;;;4.95;1.33;;;;;;;7.74;nan;102729.44;5073012;28;20060;-55
2022/03/17 08:25:15;;;;;;;3.55;1.40;;;;;;;8.40;nan;102772.88;5073317;28;20082;-56
2022/03/17 08:27:42;;;;;;;7.88;1.95;;;;;;;8.88;nan;102772.28;5073354;28;20071;-55
2022/03/17 08:30:08;;;;;;;6.68;1.85;;;;;;;9.40;nan;102805.78;5073017;28;20552;-57
2022/03/17 08:32:33;;;;;;;4.32;1.30;;;;;;;9.57;nan;102805.88;5073178;28;20039;-54
2022/03/17 08:34:59;;;;;;;6.30;1.35;;;;;;;9.72;nan;102805.88;5073028;28;20041;-52
2022/03/17 08:37:24;;;;;;;4.05;1.25;;;;;;;9.75;nan;102824.28;5055278;28;20119;-54
2022/03/17 08:39:50;;;;;;;8.30;1.77;;;;;;;9.32;nan;102775.97;5072352;28;20044;-55
2022/03/17 08:42:15;;;;;;;4.72;1.70;;;;;;;9.19;nan;102845.13;5072346;28;20024;-51
2022/03/17 08:44:41;;;;;;;5.68;1.40;;;;;;;9.02;nan;102833.63;5054012;28;20028;-53
2022/03/17 08:49:50;;;;;;;5.60;1.77;;;;;;;10.09;nan;102851.56;5058176;28;20122;-54
2022/03/17 08:52:16;;;;;;;8.00;1.90;;;;;;;9.96;nan;102805.94;5055209;28;20476;-55
2022/03/17 08:54:44;;;;;;;9.05;1.83;;;;;;;10.23;nan;102805.13;5072710;28;20182;-53
2022/03/17 08:57:11;;;;;;;6.40;1.67;;;;;;;10.21;nan;102869.16;5072698;28;20028;-56
2022/03/17 08:59:36;;;;;;;5.50;1.85;;;;;;;10.06;nan;102844.56;5055032;28;20028;-53
2022/03/17 09:02:07;;;;;;;5.38;1.52;;;;;;;10.09;nan;102841.03;5072379;28;20081;-52
2022/03/17 09:04:33;;;;;;;;;;;;;;;11.10;nan;102877.00;5072854;28;20059;-51
2022/03/17 09:07:00;;;;;;;9.27;2.28;;;;;;;12.09;nan;102895.97;5054704;28;19944;-53
2022/03/17 09:09:31;;;;;;;5.85;2.15;;;;;;;12.64;nan;102852.41;5072439;28;20036;-56
2022/03/17 09:11:56;;;;;;;;;;;;;;;13.51;nan;102905.31;5072679;28;20446;-52
2022/03/17 09:14:22;;;;;;;9.60;2.35;;;;;;;13.52;nan;102912.34;5072386;28;19916;-51
2022/03/17 09:16:48;;;;;;;6.18;1.83;;;;;;;12.82;nan;102868.09;5054450;28;20130;-54
2022/03/17 09:19:14;;;;;;;9.02;2.42;;;;;;;12.41;nan;102873.75;5054487;28;20067;-54
2022/03/17 09:21:39;;;;;;;8.93;2.00;;;;;;;12.70;nan;102914.88;5054599;28;20032;-54
2022/03/17 09:24:05;;;;;;;7.38;2.53;;;;;;;12.30;nan;102928.41;5072289;28;20044;-55
2022/03/17 09:26:31;;;;;;;6.57;1.80;;;;;;;12.15;nan;102882.72;5054024;28;20033;-49
2022/03/17 09:28:57;;;;;;;6.97;1.67;;;;;;;12.00;nan;102886.34;5071610;28;20430;-51
2022/03/17 09:31:23;;;;;;;9.25;2.08;;;;;;;12.68;nan;102887.63;5072050;28;20044;-50
2022/03/17 09:33:49;;;;;;;6.13;1.85;;;;;;;13.37;nan;102949.53;5071993;28;20406;-55
2022/03/17 09:36:16;;;;;;;6.68;2.17;;;;;;;13.60;nan;102952.81;5071986;28;20041;-55
2022/03/17 09:38:42;;;;;;;7.90;2.00;;;;;;;12.55;nan;102939.66;5071999;28;20072;-53
2022/03/17 09:41:24;;;;;;;7.45;2.00;;;;;;;11.91;nan;102933.03;5053741;28;20445;-53
2022/03/17 09:43:51;;;;;;;3.40;1.67;;;;;;;11.70;nan;102978.84;5056198;28;20391;-52
2022/03/17 09:46:17;;;;;;;6.32;2.13;;;;;;;11.55;nan;102960.41;5071491;28;20036;-50
2022/03/17 09:48:44;;;;;;;5.60;2.22;;;;;;;11.29;nan;102936.72;5053464;28;20068;-55
2022/03/17 09:51:09;;;;;;;7.25;2.72;;;;;;;11.32;nan;102982.41;5053109;28;20024;-53
2022/03/17 09:53:35;;;;;;;6.65;2.10;;;;;;;11.18;nan;102984.19;5071141;28;20025;-54
2022/03/17 09:56:00;;;;;;;4.28;2.03;;;;;;;11.00;nan;102951.72;5070811;28;20121;-52
2022/03/17 09:58:26;;;;;;;7.03;2.65;;;;;;;11.00;nan;102959.63;5071621;28;20070;-54
2022/03/17 10:00:53;;;;;;;5.85;2.30;;;;;;;11.67;nan;102998.19;5053559;28;20032;-54
2022/03/17 10:03:21;;;;;;;6.88;2.22;;;;;;;12.80;nan;102980.88;5071577;28;20032;-54
2022/03/17 10:05:48;;;;;;;6.82;2.47;;;;;;;13.51;nan;103011.16;5071839;28;20074;-55
2022/03/17 10:08:14;;;;;;;6.40;2.15;;;;;;;13.79;nan;103009.06;5071522;28;20029;-55
2022/03/17 10:10:42;;;;;;;8.25;2.40;;;;;;;12.88;nan;103015.19;5036747;28;20058;-51
2022/03/17 10:13:17;;;;;;;6.63;2.22;;;;;;;12.10;nan;102992.75;5036401;28;20036;-50
2022/03/17 10:15:44;;;;;;;9.00;2.65;;;;;;;12.87;nan;103046.00;5071391;28;20490;-50
2022/03/17 10:18:18;;;;;;;9.45;2.95;;;;;;;13.43;nan;102997.97;5071282;28;20032;-51
2022/03/17 10:20:43;;;;;;;6.28;2.30;;;;;;;15.20;nan;103043.31;5053442;28;20036;-51
2022/03/17 10:23:08;;;;;;;10.43;2.30;;;;;;;15.92;nan;103045.56;5052789;28;20045;-53
2022/03/17 10:25:37;;;;;;;8.20;2.58;;;;;;;16.45;nan;103057.75;5052942;28;20044;-53
2022/03/17 10:28:03;;;;;;;7.75;2.53;;;;;;;16.54;nan;103076.19;5071065;28;20093;-51
2022/03/17 10:30:35;;;;;;;6.35;2.20;;;;;;;15.47;nan;103079.13;5041639;28;20378;-50
2022/03/17 10:33:14;;;;;;;7.25;2.25;;;;;;;14.23;nan;103045.59;5030838;28;20033;-51
2022/03/17 10:35:45;;;;;;;7.15;2.58;;;;;;;13.49;nan;103037.59;5030001;28;20472;-53
2022/03/17 10:38:15;;;;;;;5.03;2.17;;;;;;;13.03;nan;103032.69;5031004;28;20033;-51
2022/03/17 10:40:42;;;;;;;6.00;2.10;;;;;;;14.00;nan;103105.03;5031287;28;20034;-51
2022/03/17 10:43:22;;;;;;;6.85;2.33;;;;;;;15.42;nan;103099.53;5030802;28;20060;-54
2022/03/17 10:46:03;;;;;;;6.68;2.67;;;;;;;16.14;nan;103120.41;5030868;28;20508;-53
2022/03/17 10:48:29;;;;;;;5.43;2.03;;;;;;;16.85;nan;103132.22;5029734;28;20037;-55
2022/03/17 10:50:55;;;;;;;6.10;2.17;;;;;;;17.26;nan;103128.59;5030862;28;20374;-59
2022/03/17 10:53:27;;;;;;;6.20;2.17;;;;;;;17.80;nan;103127.28;5030816;28;20115;-49
2022/03/17 10:55:52;;;;;;;5.07;2.17;;;;;;;17.40;nan;103124.69;5030824;28;20542;-49
2022/03/17 10:58:19;;;;;;;5.75;1.83;;;;;;;16.90;nan;103071.81;5029570;28;20120;-55
2022/03/17 11:00:52;;;;;;;3.33;1.70;;;;;;;16.73;nan;103117.41;5030966;28;20042;-51
2022/03/17 11:03:22;;;;;;;5.97;2.33;;;;;;;16.83;nan;103140.25;5030918;28;20041;-55
2022/03/17 11:05:51;;;;;;;4.88;2.20;;;;;;;16.89;nan;103152.53;5029833;28;20095;-55
2022/03/17 11:08:18;;;;;;;6.78;1.85;;;;;;;17.58;nan;103135.84;5033084;28;20041;-51
2022/03/17 11:10:44;;;;;;;7.95;2.00;;;;;;;17.80;nan;103115.75;5033520;28;20037;-51
2022/03/17 11:13:10;;;;;;;7.82;1.83;;;;;;;18.08;nan;103135.38;5034455;28;20037;-50
2022/03/17 11:15:38;;;;;;;10.65;2.65;;;;;;;17.88;nan;103079.97;5034519;28;20074;-50
2022/03/17 11:18:19;;;;;;;6.82;2.00;;;;;;;18.09;nan;103144.25;5034726;28;20065;-56
2022/03/17 11:20:45;;;;;;;7.20;1.83;;;;;;;17.24;nan;103088.72;5033377;28;20037;-51
2022/03/17 11:23:23;;;;;;;6.07;1.90;;;;;;;17.22;nan;103143.75;5033255;28;20114;-55
2022/03/17 11:25:55;;;;;;;6.95;1.92;;;;;;;17.96;nan;103162.38;5034575;28;20029;-47
2022/03/17 11:28:34;;;;;;;6.47;1.90;;;;;;;18.66;nan;103149.75;5032243;28;20079;-49
2022/03/17 11:31:01;;;;;;;6.75;1.95;;;;;;;18.58;nan;103159.78;5057568;28;20075;-49
2022/03/17 11:33:29;;;;;;;5.10;1.83;;;;;;;18.80;nan;103151.09;5056091;28;20078;-51
2022/03/17 11:36:00;;;;;;;5.43;1.90;;;;;;;18.51;nan;103095.94;5055707;28;20039;-50
2022/03/17 11:38:32;;;;;;;5.57;2.15;;;;;;;19.68;nan;103164.31;5074131;28;20032;-52
2022/03/17 11:41:12;;;;;;;8.35;1.88;;;;;;;19.28;nan;103161.16;5074026;28;20029;-52
2022/03/17 11:43:46;;;;;;;4.13;1.85;;;;;;;18.75;nan;103155.69;5073896;28;20505;-53
2022/03/17 11:46:22;;;;;;;8.13;2.08;;;;;;;19.12;nan;103165.25;5074325;28;20047;-53
2022/03/17 11:48:51;;;;;;;6.78;1.95;;;;;;;18.64;nan;103107.13;5073958;28;20387;-55